Helper, Utah
Current Conditions -  °F | °C
As of 8:53 PM on Wednesday 26 Nov 2014 (Local Time) from KPUC Reporting Station
Clear Clear  
Wind Chill: 29°   Ceiling: Unl
Heat Index: 36°   Visibility: 10mi
Dew Point: 25°   Wind: 9mph
Humidity: 64%   Direction: 40°NE
Pressure: 30.42"   Gusts: NA
Location:  39.68°N, 110.85°W
Report Text: KPUC 270353Z AUTO 04008KT 10SM CLR 02/M04 A3042 RMK AO2 SLP326 T00221039
Loading
Personal Weather Stations






























Interactive Weather Map New forecast layout! Learn more

10-Day Weather Forecast

Advertisements
Track Severe Weather on mobile